Time,TemperatureF,DewpointF,PressureIn,WindDirection,WindDirectionDegrees,WindSpeedMPH,WindSpeedGustMPH,Humidity,HourlyPrecipIn,Conditions,Clouds,dailyrainin,SoftwareType,DateUTC
2013-07-01 00:01:00,88.0,68.0,29.68,South,171,4.0,18.0,51,0.00,,,0.00,,2013-07-01 07:01:00,
2013-07-01 00:11:00,88.0,67.0,29.67,SSE,159,7.0,16.0,50,0.00,,,0.00,,2013-07-01 07:11:00,
2013-07-01 00:21:00,88.0,67.0,29.68,SSE,152,6.0,12.0,50,0.00,,,0.00,,2013-07-01 07:21:00,
2013-07-01 00:33:00,88.0,67.0,29.68,South,173,7.0,13.0,50,0.00,,,0.00,,2013-07-01 07:33:00,
2013-07-01 00:43:00,88.0,68.0,29.69,ESE,122,4.0,10.0,51,0.00,,,0.00,,2013-07-01 07:43:00,
2013-07-01 00:53:00,88.0,67.0,29.71,ESE,120,3.0,10.0,50,0.00,,,0.00,,2013-07-01 07:53:00,
2013-07-01 01:01:00,88.0,68.0,29.72,WNW,287,4.0,8.0,51,0.00,,,0.00,,2013-07-01 08:01:00,
2013-07-01 01:11:00,88.0,67.0,29.72,ENE,76,0.0,1.0,50,0.00,,,0.00,,2013-07-01 08:11:00,
2013-07-01 01:22:00,89.0,68.0,29.72,ENE,75,3.0,10.0,50,0.00,,,0.00,,2013-07-01 08:22:00,
2013-07-01 01:32:00,89.0,67.0,29.72,SE,129,6.0,15.0,49,0.00,,,0.00,,2013-07-01 08:32:00,
2013-07-01 01:42:00,90.0,68.0,29.72,SE,137,8.0,12.0,48,0.00,,,0.00,,2013-07-01 08:42:00,
2013-07-01 01:52:00,90.0,68.0,29.72,SE,139,7.0,8.0,48,0.00,,,0.00,,2013-07-01 08:52:00,
2013-07-01 02:01:00,90.0,68.0,29.72,SSE,152,4.0,5.0,49,0.00,,,0.00,,2013-07-01 09:01:00,
2013-07-01 02:11:00,89.0,67.0,29.71,SE,134,3.0,7.0,49,0.00,,,0.00,,2013-07-01 09:11:00,
2013-07-01 02:22:00,89.0,67.0,29.71,SSE,168,6.0,8.0,49,0.00,,,0.00,,2013-07-01 09:22:00,
2013-07-01 02:33:00,89.0,67.0,29.71,SSE,157,5.0,8.0,49,0.00,,,0.00,,2013-07-01 09:33:00,
2013-07-01 02:43:00,89.0,67.0,29.71,SSE,156,4.0,7.0,48,0.00,,,0.00,,2013-07-01 09:43:00,
2013-07-01 02:53:00,89.0,67.0,29.71,WSW,237,2.0,8.0,48,0.00,,,0.00,,2013-07-01 09:53:00,
2013-07-01 03:03:00,90.0,68.0,29.71,ESE,117,6.0,10.0,48,0.00,,,0.00,,2013-07-01 10:03:00,
2013-07-01 03:11:00,90.0,68.0,29.72,SE,126,7.0,9.0,48,0.00,,,0.00,,2013-07-01 10:11:00,
2013-07-01 03:22:00,89.0,67.0,29.72,ESE,120,5.0,5.0,49,0.00,,,0.00,,2013-07-01 10:22:00,
2013-07-01 03:33:00,89.0,67.0,29.72,SSE,168,2.0,4.0,49,0.00,,,0.00,,2013-07-01 10:33:00,
2013-07-01 03:42:00,89.0,68.0,29.71,South,175,1.0,2.0,50,0.00,,,0.00,,2013-07-01 10:42:00,
2013-07-01 04:02:00,89.0,67.0,29.71,South,177,1.0,4.0,48,0.00,,,0.00,,2013-07-01 11:02:00,
2013-07-01 04:11:00,89.0,67.0,29.71,ESE,116,3.0,5.0,48,0.00,,,0.00,,2013-07-01 11:11:00,
2013-07-01 04:33:00,89.0,67.0,29.70,SSE,159,1.0,2.0,48,0.00,,,0.00,,2013-07-01 11:33:00,
2013-07-01 04:43:00,89.0,67.0,29.70,SSE,154,0.0,2.0,49,0.00,,,0.00,,2013-07-01 11:43:00,
2013-07-01 04:52:00,89.0,67.0,29.70,SSE,154,0.0,1.0,49,0.00,,,0.00,,2013-07-01 11:52:00,
2013-07-01 05:01:00,88.0,68.0,29.70,NNW,341,1.0,2.0,51,0.00,,,0.00,,2013-07-01 12:01:00,
2013-07-01 05:11:00,88.0,68.0,29.70,NW,320,2.0,4.0,51,0.00,,,0.00,,2013-07-01 12:11:00,
2013-07-01 05:21:00,88.0,68.0,29.71,NNW,341,1.0,2.0,52,0.00,,,0.00,,2013-07-01 12:21:00,
2013-07-01 05:33:00,87.0,67.0,29.71,North,357,0.0,0.0,52,0.00,,,0.00,,2013-07-01 12:33:00,
2013-07-01 05:43:00,87.0,67.0,29.71,North,355,0.0,0.0,52,0.00,,,0.00,,2013-07-01 12:43:00,
2013-07-01 05:53:00,87.0,68.0,29.71,North,355,1.0,1.0,53,0.00,,,0.00,,2013-07-01 12:53:00,
2013-07-01 06:01:00,87.0,68.0,29.72,ENE,69,1.0,1.0,53,0.00,,,0.00,,2013-07-01 13:01:00,
2013-07-01 06:12:00,87.0,68.0,29.72,ENE,68,0.0,1.0,53,0.00,,,0.00,,2013-07-01 13:12:00,
2013-07-01 06:23:00,87.0,67.0,29.72,East,85,1.0,1.0,52,0.00,,,0.00,,2013-07-01 13:23:00,
2013-07-01 06:33:00,87.0,67.0,29.72,East,89,0.0,2.0,52,0.00,,,0.00,,2013-07-01 13:33:00,
2013-07-01 06:43:00,87.0,67.0,29.72,East,89,0.0,1.0,52,0.00,,,0.00,,2013-07-01 13:43:00,
2013-07-01 06:53:00,88.0,68.0,29.72,East,85,0.0,1.0,51,0.00,,,0.00,,2013-07-01 13:53:00,
2013-07-01 07:01:00,88.0,68.0,29.73,East,88,0.0,0.0,52,0.00,,,0.00,,2013-07-01 14:01:00,
2013-07-01 07:11:00,88.0,68.0,29.73,NE,54,0.0,1.0,51,0.00,,,0.00,,2013-07-01 14:11:00,
2013-07-01 07:34:00,88.0,68.0,29.74,NNE,22,2.0,3.0,51,0.00,,,0.00,,2013-07-01 14:34:00,
2013-07-01 07:43:00,89.0,68.0,29.74,North,6,1.0,1.0,50,0.00,,,0.00,,2013-07-01 14:43:00,
2013-07-01 07:52:00,90.0,69.0,29.74,North,8,0.0,1.0,50,0.00,,,0.00,,2013-07-01 14:52:00,
2013-07-01 08:01:00,92.0,69.0,29.74,NNW,341,2.0,4.0,47,0.00,,,0.00,,2013-07-01 15:01:00,
2013-07-01 08:11:00,93.0,68.0,29.74,NE,43,3.0,3.0,45,0.00,,,0.00,,2013-07-01 15:11:00,
2013-07-01 08:33:00,93.0,68.0,29.74,NE,41,2.0,3.0,44,0.00,,,0.00,,2013-07-01 15:33:00,
2013-07-01 08:43:00,94.0,68.0,29.76,East,93,5.0,6.0,43,0.00,,,0.00,,2013-07-01 15:43:00,
2013-07-01 09:01:00,95.0,68.0,29.77,ENE,77,7.0,8.0,41,0.00,,,0.00,,2013-07-01 16:01:00,
2013-07-01 09:11:00,96.0,65.0,29.77,East,99,8.0,10.0,37,0.00,,,0.00,,2013-07-01 16:11:00,
2013-07-01 09:22:00,98.0,64.0,29.76,SE,132,8.0,11.0,33,0.00,,,0.00,,2013-07-01 16:22:00,
2013-07-01 09:33:00,99.0,64.0,29.76,ESE,119,6.0,7.0,32,0.00,,,0.00,,2013-07-01 16:33:00,
2013-07-01 09:43:00,99.0,62.0,29.76,SE,126,8.0,11.0,30,0.00,,,0.00,,2013-07-01 16:43:00,
2013-07-01 09:53:00,100.0,63.0,29.76,SE,128,6.0,10.0,30,0.00,,,0.00,,2013-07-01 16:53:00,
2013-07-01 10:01:00,101.0,64.0,29.75,SSE,168,4.0,7.0,30,0.00,,,0.00,,2013-07-01 17:01:00,
2013-07-01 10:12:00,100.0,62.0,29.75,SE,138,5.0,11.0,29,0.00,,,0.00,,2013-07-01 17:12:00,
2013-07-01 10:23:00,100.0,62.0,29.75,SSE,164,7.0,8.0,29,0.00,,,0.00,,2013-07-01 17:23:00,
2013-07-01 10:33:00,102.0,64.0,29.75,SSW,192,4.0,7.0,29,0.00,,,0.00,,2013-07-01 17:33:00,
2013-07-01 10:43:00,103.0,64.0,29.75,SSW,196,3.0,4.0,28,0.00,,,0.00,,2013-07-01 17:43:00,
2013-07-01 10:53:00,104.0,61.0,29.74,SE,125,7.0,12.0,25,0.00,,,0.00,,2013-07-01 17:53:00,
2013-07-01 11:02:00,104.0,61.0,29.74,SSE,148,7.0,11.0,25,0.00,,,0.00,,2013-07-01 18:02:00,
2013-07-01 11:11:00,104.0,61.0,29.74,SE,139,6.0,8.0,25,0.00,,,0.00,,2013-07-01 18:11:00,
2013-07-01 11:33:00,107.0,61.0,29.74,SSW,210,4.0,12.0,23,0.00,,,0.00,,2013-07-01 18:33:00,
2013-07-01 11:43:00,107.0,62.0,29.73,SSE,166,3.0,6.0,24,0.00,,,0.00,,2013-07-01 18:43:00,
2013-07-01 11:52:00,107.0,62.0,29.73,South,169,3.0,4.0,24,0.00,,,0.00,,2013-07-01 18:52:00,
2013-07-01 12:01:00,110.0,61.0,29.73,SSW,211,6.0,7.0,21,0.00,,,0.00,,2013-07-01 19:01:00,
2013-07-01 12:52:00,109.0,60.0,29.72,SE,129,6.0,10.0,21,0.00,,,0.00,,2013-07-01 19:52:00,
2013-07-01 13:01:00,110.0,60.0,29.72,South,187,6.0,10.0,20,0.00,,,0.00,,2013-07-01 20:01:00,
2013-07-01 13:11:00,110.0,58.0,29.72,ESE,113,6.0,6.0,19,0.00,,,0.00,,2013-07-01 20:11:00,
2013-07-01 13:33:00,110.0,60.0,29.71,South,170,4.0,5.0,20,0.00,,,0.00,,2013-07-01 20:33:00,
2013-07-01 13:43:00,110.0,58.0,29.71,SSE,150,5.0,7.0,19,0.00,,,0.00,,2013-07-01 20:43:00,
2013-07-01 13:52:00,110.0,60.0,29.71,SSE,157,6.0,11.0,20,0.00,,,0.00,,2013-07-01 20:52:00,
2013-07-01 14:01:00,109.0,62.0,29.70,SE,145,3.0,4.0,22,0.00,,,0.00,,2013-07-01 21:01:00,
2013-07-01 14:11:00,109.0,62.0,29.70,South,178,4.0,9.0,22,0.00,,,0.00,,2013-07-01 21:11:00,
2013-07-01 14:23:00,109.0,62.0,29.70,East,81,4.0,10.0,22,0.00,,,0.00,,2013-07-01 21:23:00,
2013-07-01 14:43:00,110.0,61.0,29.70,SE,137,7.0,9.0,21,0.00,,,0.00,,2013-07-01 21:43:00,
2013-07-01 14:53:00,109.0,62.0,29.69,ESE,113,4.0,7.0,22,0.00,,,0.00,,2013-07-01 21:53:00,
2013-07-01 15:01:00,109.0,62.0,29.69,SE,125,5.0,12.0,22,0.00,,,0.00,,2013-07-01 22:01:00,
2013-07-01 15:11:00,110.0,62.0,29.69,SW,215,5.0,11.0,22,0.00,,,0.00,,2013-07-01 22:11:00,
2013-07-01 15:23:00,112.0,60.0,29.68,South,182,4.0,6.0,19,0.00,,,0.00,,2013-07-01 22:23:00,
2013-07-01 15:32:00,113.0,62.0,29.68,West,270,6.0,11.0,20,0.00,,,0.00,,2013-07-01 22:32:00,
2013-07-01 15:42:00,113.0,62.0,29.67,SSW,199,9.0,15.0,20,0.00,,,0.00,,2013-07-01 22:42:00,
2013-07-01 15:52:00,113.0,61.0,29.67,SSW,200,6.0,12.0,19,0.00,,,0.00,,2013-07-01 22:52:00,
2013-07-01 16:01:00,113.0,64.0,29.67,SSE,165,7.0,8.0,21,0.00,,,0.00,,2013-07-01 23:01:00,
2013-07-01 16:11:00,112.0,64.0,29.67,South,170,5.0,14.0,22,0.00,,,0.00,,2013-07-01 23:11:00,
2013-07-01 16:22:00,112.0,64.0,29.67,SSW,198,8.0,10.0,22,0.00,,,0.00,,2013-07-01 23:22:00,
2013-07-01 16:53:00,111.0,63.0,29.66,SSE,164,5.0,8.0,22,0.00,,,0.00,,2013-07-01 23:53:00,
2013-07-01 17:01:00,111.0,62.0,29.65,SW,222,5.0,7.0,21,0.00,,,0.00,,2013-07-02 00:01:00,
2013-07-01 17:11:00,111.0,62.0,29.65,SSW,198,3.0,8.0,21,0.00,,,0.00,,2013-07-02 00:11:00,
2013-07-01 17:33:00,112.0,63.0,29.65,SW,222,5.0,10.0,21,0.00,,,0.00,,2013-07-02 00:33:00,
2013-07-01 17:43:00,111.0,63.0,29.65,WSW,237,6.0,9.0,22,0.00,,,0.00,,2013-07-02 00:43:00,
2013-07-01 17:53:00,111.0,63.0,29.64,SSW,201,4.0,5.0,22,0.00,,,0.00,,2013-07-02 00:53:00,
2013-07-01 18:01:00,110.0,64.0,29.64,SSW,210,6.0,8.0,23,0.00,,,0.00,,2013-07-02 01:01:00,
2013-07-01 18:11:00,110.0,64.0,29.64,SSW,192,5.0,8.0,23,0.00,,,0.00,,2013-07-02 01:11:00,
2013-07-01 18:32:00,108.0,62.0,29.65,SSW,194,5.0,11.0,23,0.00,,,0.00,,2013-07-02 01:32:00,
2013-07-01 18:43:00,107.0,62.0,29.65,SSW,198,6.0,7.0,24,0.00,,,0.00,,2013-07-02 01:43:00,
2013-07-01 18:53:00,107.0,62.0,29.64,SW,221,7.0,8.0,24,0.00,,,0.00,,2013-07-02 01:53:00,
2013-07-01 19:01:00,106.0,62.0,29.65,South,187,6.0,7.0,24,0.00,,,0.00,,2013-07-02 02:01:00,
2013-07-01 19:11:00,106.0,62.0,29.65,South,189,7.0,10.0,24,0.00,,,0.00,,2013-07-02 02:11:00,
2013-07-01 19:33:00,105.0,62.0,29.65,SW,223,6.0,8.0,25,0.00,,,0.00,,2013-07-02 02:33:00,
2013-07-01 19:43:00,104.0,61.0,29.65,South,189,5.0,7.0,25,0.00,,,0.00,,2013-07-02 02:43:00,
2013-07-01 20:01:00,103.0,61.0,29.66,SSW,208,2.0,4.0,26,0.00,,,0.00,,2013-07-02 03:01:00,
2013-07-01 20:11:00,103.0,61.0,29.66,SW,219,3.0,4.0,26,0.00,,,0.00,,2013-07-02 03:11:00,
2013-07-01 20:32:00,100.0,62.0,29.67,SW,219,1.0,2.0,29,0.00,,,0.00,,2013-07-02 03:32:00,
2013-07-01 20:43:00,100.0,62.0,29.67,SW,216,2.0,4.0,29,0.00,,,0.00,,2013-07-02 03:43:00,
2013-07-01 20:53:00,99.0,61.0,29.67,SW,228,2.0,3.0,29,0.00,,,0.00,,2013-07-02 03:53:00,
2013-07-01 21:01:00,98.0,61.0,29.67,SW,234,1.0,3.0,30,0.00,,,0.00,,2013-07-02 04:01:00,
2013-07-01 21:11:00,98.0,61.0,29.67,WSW,247,1.0,1.0,30,0.00,,,0.00,,2013-07-02 04:11:00,
2013-07-01 21:21:00,98.0,63.0,29.67,SW,233,5.0,8.0,32,0.00,,,0.00,,2013-07-02 04:21:00,
2013-07-01 21:32:00,98.0,63.0,29.67,SW,233,5.0,8.0,32,0.00,,,0.00,,2013-07-02 04:32:00,
2013-07-01 21:42:00,98.0,63.0,29.67,SW,233,5.0,8.0,32,0.00,,,0.00,,2013-07-02 04:42:00,
2013-07-01 21:53:00,95.0,65.0,29.69,SW,223,4.0,5.0,37,0.00,,,0.00,,2013-07-02 04:53:00,
2013-07-01 22:01:00,95.0,65.0,29.69,SW,224,2.0,4.0,37,0.00,,,0.00,,2013-07-02 05:01:00,
2013-07-01 22:11:00,93.0,64.0,29.70,SW,219,3.0,6.0,39,0.00,,,0.00,,2013-07-02 05:11:00,
2013-07-01 22:32:00,92.0,64.0,29.71,SW,214,2.0,4.0,40,0.00,,,0.00,,2013-07-02 05:32:00,
2013-07-01 22:42:00,92.0,64.0,29.71,SSW,205,0.0,2.0,40,0.00,,,0.00,,2013-07-02 05:42:00,
2013-07-01 23:01:00,91.0,64.0,29.71,SW,222,0.0,1.0,41,0.00,,,0.00,,2013-07-02 06:01:00,
2013-07-01 23:11:00,91.0,64.0,29.72,West,272,0.0,0.0,41,0.00,,,0.00,,2013-07-02 06:11:00,
2013-07-01 23:33:00,90.0,64.0,29.72,South,191,0.0,0.0,43,0.00,,,0.00,,2013-07-02 06:33:00,
2013-07-01 23:43:00,90.0,65.0,29.72,NW,323,1.0,2.0,44,0.00,,,0.00,,2013-07-02 06:43:00,